sensor_id;sensor_type;location;lat;lon;timestamp;P1;durP1;ratioP1;P2;durP2;ratioP2
18623;SDS011;9441;51.420;7.036;2022-08-30T00:00:29;7.32;;;3.97;;
18623;SDS011;9441;51.420;7.036;2022-08-30T00:01:49;7.10;;;4.20;;
18623;SDS011;9441;51.420;7.036;2022-08-30T00:02:51;5.72;;;4.20;;
18623;SDS011;9441;51.420;7.036;2022-08-30T00:03:52;7.30;;;4.30;;
18623;SDS011;9441;51.420;7.036;2022-08-30T00:04:55;7.35;;;4.22;;
18623;SDS011;9441;51.420;7.036;2022-08-30T00:05:57;11.88;;;4.25;;
18623;SDS011;9441;51.420;7.036;2022-08-30T00:06:59;7.15;;;4.07;;
18623;SDS011;9441;51.420;7.036;2022-08-30T00:08:01;7.43;;;4.20;;
18623;SDS011;9441;51.420;7.036;2022-08-30T00:09:04;8.95;;;4.30;;
18623;SDS011;9441;51.420;7.036;2022-08-30T00:10:05;7.85;;;4.63;;
18623;SDS011;9441;51.420;7.036;2022-08-30T00:11:10;9.32;;;4.40;;
18623;SDS011;9441;51.420;7.036;2022-08-30T00:12:15;7.55;;;4.43;;
18623;SDS011;9441;51.420;7.036;2022-08-30T00:13:17;9.25;;;4.32;;
18623;SDS011;9441;51.420;7.036;2022-08-30T00:14:19;10.30;;;4.10;;
18623;SDS011;9441;51.420;7.036;2022-08-30T00:15:21;6.50;;;4.72;;
18623;SDS011;9441;51.420;7.036;2022-08-30T00:16:23;6.28;;;3.80;;
18623;SDS011;9441;51.420;7.036;2022-08-30T00:17:26;7.63;;;4.40;;
18623;SDS011;9441;51.420;7.036;2022-08-30T00:18:27;9.18;;;4.13;;
18623;SDS011;9441;51.420;7.036;2022-08-30T00:19:30;8.32;;;4.55;;
18623;SDS011;9441;51.420;7.036;2022-08-30T00:20:32;13.10;;;4.80;;
18623;SDS011;9441;51.420;7.036;2022-08-30T00:21:35;9.05;;;4.57;;
18623;SDS011;9441;51.420;7.036;2022-08-30T00:22:36;6.03;;;4.28;;
18623;SDS011;9441;51.420;7.036;2022-08-30T00:23:38;12.57;;;4.35;;
18623;SDS011;9441;51.420;7.036;2022-08-30T00:24:40;8.38;;;4.40;;
18623;SDS011;9441;51.420;7.036;2022-08-30T00:25:42;6.82;;;4.10;;
18623;SDS011;9441;51.420;7.036;2022-08-30T00:26:44;12.07;;;4.40;;
18623;SDS011;9441;51.420;7.036;2022-08-30T00:27:47;11.27;;;4.43;;
18623;SDS011;9441;51.420;7.036;2022-08-30T00:28:49;10.35;;;4.30;;
18623;SDS011;9441;51.420;7.036;2022-08-30T00:29:51;12.68;;;4.97;;
18623;SDS011;9441;51.420;7.036;2022-08-30T00:30:52;9.63;;;4.43;;
18623;SDS011;9441;51.420;7.036;2022-08-30T00:31:55;7.85;;;4.97;;
18623;SDS011;9441;51.420;7.036;2022-08-30T00:32:56;7.88;;;4.53;;
18623;SDS011;9441;51.420;7.036;2022-08-30T00:33:58;9.88;;;4.40;;
18623;SDS011;9441;51.420;7.036;2022-08-30T00:34:59;7.68;;;4.50;;
18623;SDS011;9441;51.420;7.036;2022-08-30T00:36:02;10.32;;;4.40;;
18623;SDS011;9441;51.420;7.036;2022-08-30T00:37:03;12.65;;;4.40;;
18623;SDS011;9441;51.420;7.036;2022-08-30T00:38:05;10.90;;;4.70;;
18623;SDS011;9441;51.420;7.036;2022-08-30T00:39:07;6.57;;;4.65;;
18623;SDS011;9441;51.420;7.036;2022-08-30T00:40:10;9.98;;;4.70;;
18623;SDS011;9441;51.420;7.036;2022-08-30T00:41:12;14.10;;;4.97;;
18623;SDS011;9441;51.420;7.036;2022-08-30T00:42:14;9.15;;;4.93;;
18623;SDS011;9441;51.420;7.036;2022-08-30T00:43:18;9.48;;;5.00;;
18623;SDS011;9441;51.420;7.036;2022-08-30T00:44:23;9.77;;;4.85;;
18623;SDS011;9441;51.420;7.036;2022-08-30T00:45:26;8.63;;;4.68;;
18623;SDS011;9441;51.420;7.036;2022-08-30T00:46:30;12.27;;;5.10;;
18623;SDS011;9441;51.420;7.036;2022-08-30T00:47:32;12.68;;;4.82;;
18623;SDS011;9441;51.420;7.036;2022-08-30T00:48:35;13.00;;;4.60;;
18623;SDS011;9441;51.420;7.036;2022-08-30T00:49:41;8.65;;;4.85;;
18623;SDS011;9441;51.420;7.036;2022-08-30T00:50:48;9.57;;;4.60;;
18623;SDS011;9441;51.420;7.036;2022-08-30T00:51:52;8.73;;;4.78;;
18623;SDS011;9441;51.420;7.036;2022-08-30T00:52:56;12.63;;;4.70;;
18623;SDS011;9441;51.420;7.036;2022-08-30T00:53:59;8.88;;;4.70;;
18623;SDS011;9441;51.420;7.036;2022-08-30T00:55:03;9.82;;;5.40;;
18623;SDS011;9441;51.420;7.036;2022-08-30T00:56:04;7.20;;;4.70;;
18623;SDS011;9441;51.420;7.036;2022-08-30T00:57:08;6.82;;;4.35;;
18623;SDS011;9441;51.420;7.036;2022-08-30T00:58:11;8.20;;;5.03;;
18623;SDS011;9441;51.420;7.036;2022-08-30T00:59:17;8.38;;;4.68;;
18623;SDS011;9441;51.420;7.036;2022-08-30T01:00:21;7.25;;;4.70;;
18623;SDS011;9441;51.420;7.036;2022-08-30T01:01:23;9.48;;;4.80;;
18623;SDS011;9441;51.420;7.036;2022-08-30T01:02:24;9.25;;;5.07;;
18623;SDS011;9441;51.420;7.036;2022-08-30T01:03:30;11.55;;;4.90;;
18623;SDS011;9441;51.420;7.036;2022-08-30T01:04:31;12.63;;;5.05;;
18623;SDS011;9441;51.420;7.036;2022-08-30T01:05:35;9.57;;;4.70;;
18623;SDS011;9441;51.420;7.036;2022-08-30T01:06:38;9.52;;;4.88;;
18623;SDS011;9441;51.420;7.036;2022-08-30T01:07:41;6.93;;;4.68;;
18623;SDS011;9441;51.420;7.036;2022-08-30T01:08:42;11.68;;;5.13;;
18623;SDS011;9441;51.420;7.036;2022-08-30T01:09:45;9.90;;;5.35;;
18623;SDS011;9441;51.420;7.036;2022-08-30T01:10:47;10.13;;;4.93;;
18623;SDS011;9441;51.420;7.036;2022-08-30T01:11:50;11.35;;;5.13;;
18623;SDS011;9441;51.420;7.036;2022-08-30T01:12:51;10.95;;;4.80;;
18623;SDS011;9441;51.420;7.036;2022-08-30T01:13:53;8.35;;;5.00;;
18623;SDS011;9441;51.420;7.036;2022-08-30T01:14:56;12.70;;;5.45;;
18623;SDS011;9441;51.420;7.036;2022-08-30T01:15:59;9.40;;;4.95;;
18623;SDS011;9441;51.420;7.036;2022-08-30T01:17:01;6.88;;;4.60;;
18623;SDS011;9441;51.420;7.036;2022-08-30T01:18:03;11.38;;;5.05;;
18623;SDS011;9441;51.420;7.036;2022-08-30T01:19:05;9.52;;;4.90;;
18623;SDS011;9441;51.420;7.036;2022-08-30T01:20:13;10.18;;;4.90;;
18623;SDS011;9441;51.420;7.036;2022-08-30T01:21:18;8.93;;;5.03;;
18623;SDS011;9441;51.420;7.036;2022-08-30T01:22:26;7.90;;;4.80;;
18623;SDS011;9441;51.420;7.036;2022-08-30T01:23:33;12.27;;;5.15;;
18623;SDS011;9441;51.420;7.036;2022-08-30T01:24:36;6.97;;;4.72;;
18623;SDS011;9441;51.420;7.036;2022-08-30T01:25:37;10.73;;;5.30;;
18623;SDS011;9441;51.420;7.036;2022-08-30T01:26:41;9.82;;;5.30;;
18623;SDS011;9441;51.420;7.036;2022-08-30T01:27:43;9.07;;;4.75;;
18623;SDS011;9441;51.420;7.036;2022-08-30T01:28:52;10.60;;;5.10;;
18623;SDS011;9441;51.420;7.036;2022-08-30T01:29:56;10.13;;;5.18;;
18623;SDS011;9441;51.420;7.036;2022-08-30T01:30:59;8.32;;;4.93;;
18623;SDS011;9441;51.420;7.036;2022-08-30T01:32:01;9.18;;;5.00;;
18623;SDS011;9441;51.420;7.036;2022-08-30T01:33:06;10.38;;;5.35;;
18623;SDS011;9441;51.420;7.036;2022-08-30T01:34:07;13.98;;;5.20;;
18623;SDS011;9441;51.420;7.036;2022-08-30T01:35:10;9.32;;;5.03;;
18623;SDS011;9441;51.420;7.036;2022-08-30T01:36:13;11.70;;;5.40;;
18623;SDS011;9441;51.420;7.036;2022-08-30T01:37:17;10.75;;;5.40;;
18623;SDS011;9441;51.420;7.036;2022-08-30T01:38:22;9.75;;;5.38;;
18623;SDS011;9441;51.420;7.036;2022-08-30T01:39:28;8.20;;;5.00;;
18623;SDS011;9441;51.420;7.036;2022-08-30T01:40:30;8.90;;;4.93;;
18623;SDS011;9441;51.420;7.036;2022-08-30T01:41:33;10.43;;;5.53;;
18623;SDS011;9441;51.420;7.036;2022-08-30T01:42:35;8.90;;;5.05;;
18623;SDS011;9441;51.420;7.036;2022-08-30T01:43:37;8.90;;;5.05;;
18623;SDS011;9441;51.420;7.036;2022-08-30T01:44:39;9.18;;;5.03;;
18623;SDS011;9441;51.420;7.036;2022-08-30T01:45:41;9.85;;;5.00;;
18623;SDS011;9441;51.420;7.036;2022-08-30T01:46:43;8.20;;;4.90;;
18623;SDS011;9441;51.420;7.036;2022-08-30T01:47:46;8.38;;;4.85;;
18623;SDS011;9441;51.420;7.036;2022-08-30T01:48:47;11.07;;;5.00;;
18623;SDS011;9441;51.420;7.036;2022-08-30T01:49:49;6.85;;;4.70;;
18623;SDS011;9441;51.420;7.036;2022-08-30T01:50:50;12.10;;;5.20;;
18623;SDS011;9441;51.420;7.036;2022-08-30T01:51:53;7.53;;;5.03;;
18623;SDS011;9441;51.420;7.036;2022-08-30T01:52:54;5.80;;;4.90;;
18623;SDS011;9441;51.420;7.036;2022-08-30T01:53:56;6.93;;;5.15;;
18623;SDS011;9441;51.420;7.036;2022-08-30T01:55:01;7.68;;;4.55;;
18623;SDS011;9441;51.420;7.036;2022-08-30T01:56:02;7.07;;;4.80;;
18623;SDS011;9441;51.420;7.036;2022-08-30T01:57:06;8.50;;;4.80;;
18623;SDS011;9441;51.420;7.036;2022-08-30T01:58:09;9.77;;;4.97;;
18623;SDS011;9441;51.420;7.036;2022-08-30T01:59:11;8.90;;;4.70;;
18623;SDS011;9441;51.420;7.036;2022-08-30T02:00:13;8.43;;;5.18;;
18623;SDS011;9441;51.420;7.036;2022-08-30T02:01:18;11.73;;;4.68;;
18623;SDS011;9441;51.420;7.036;2022-08-30T02:02:24;9.82;;;4.72;;
18623;SDS011;9441;51.420;7.036;2022-08-30T02:03:28;11.45;;;4.75;;
18623;SDS011;9441;51.420;7.036;2022-08-30T02:04:34;7.55;;;4.47;;
18623;SDS011;9441;51.420;7.036;2022-08-30T02:05:36;6.45;;;4.90;;
18623;SDS011;9441;51.420;7.036;2022-08-30T02:06:37;10.02;;;4.57;;
18623;SDS011;9441;51.420;7.036;2022-08-30T02:07:40;8.35;;;4.72;;
18623;SDS011;9441;51.420;7.036;2022-08-30T02:08:41;8.52;;;4.38;;
18623;SDS011;9441;51.420;7.036;2022-08-30T02:09:43;7.05;;;4.72;;
18623;SDS011;9441;51.420;7.036;2022-08-30T02:10:46;6.25;;;4.57;;
18623;SDS011;9441;51.420;7.036;2022-08-30T02:11:48;7.03;;;4.38;;
18623;SDS011;9441;51.420;7.036;2022-08-30T02:12:49;7.90;;;4.80;;
18623;SDS011;9441;51.420;7.036;2022-08-30T02:13:51;5.78;;;4.35;;
18623;SDS011;9441;51.420;7.036;2022-08-30T02:14:52;9.30;;;4.72;;
18623;SDS011;9441;51.420;7.036;2022-08-30T02:15:55;6.35;;;4.43;;
18623;SDS011;9441;51.420;7.036;2022-08-30T02:16:56;7.32;;;4.53;;
18623;SDS011;9441;51.420;7.036;2022-08-30T02:17:58;8.30;;;4.82;;
18623;SDS011;9441;51.420;7.036;2022-08-30T02:18:59;6.35;;;4.35;;
18623;SDS011;9441;51.420;7.036;2022-08-30T02:20:02;12.10;;;4.93;;
18623;SDS011;9441;51.420;7.036;2022-08-30T02:21:04;7.97;;;4.45;;
18623;SDS011;9441;51.420;7.036;2022-08-30T02:22:07;6.07;;;4.30;;
18623;SDS011;9441;51.420;7.036;2022-08-30T02:23:08;5.93;;;4.13;;
18623;SDS011;9441;51.420;7.036;2022-08-30T02:24:10;10.48;;;4.28;;
18623;SDS011;9441;51.420;7.036;2022-08-30T02:25:11;8.20;;;4.32;;
18623;SDS011;9441;51.420;7.036;2022-08-30T02:26:16;9.38;;;4.68;;
18623;SDS011;9441;51.420;7.036;2022-08-30T02:27:18;7.50;;;4.63;;
18623;SDS011;9441;51.420;7.036;2022-08-30T02:28:20;11.07;;;4.78;;
18623;SDS011;9441;51.420;7.036;2022-08-30T02:29:21;6.97;;;4.20;;
18623;SDS011;9441;51.420;7.036;2022-08-30T02:30:24;9.20;;;4.60;;
18623;SDS011;9441;51.420;7.036;2022-08-30T02:31:25;9.50;;;4.50;;
18623;SDS011;9441;51.420;7.036;2022-08-30T02:32:27;8.20;;;4.47;;
18623;SDS011;9441;51.420;7.036;2022-08-30T02:33:28;6.85;;;4.20;;
18623;SDS011;9441;51.420;7.036;2022-08-30T02:34:31;11.57;;;4.65;;
18623;SDS011;9441;51.420;7.036;2022-08-30T02:35:32;8.13;;;4.60;;
18623;SDS011;9441;51.420;7.036;2022-08-30T02:36:34;9.93;;;4.97;;
18623;SDS011;9441;51.420;7.036;2022-08-30T02:37:36;7.88;;;4.32;;
18623;SDS011;9441;51.420;7.036;2022-08-30T02:38:38;9.77;;;5.00;;
18623;SDS011;9441;51.420;7.036;2022-08-30T02:39:39;6.47;;;4.10;;
18623;SDS011;9441;51.420;7.036;2022-08-30T02:40:41;8.38;;;4.50;;
18623;SDS011;9441;51.420;7.036;2022-08-30T02:41:45;10.13;;;4.35;;
18623;SDS011;9441;51.420;7.036;2022-08-30T02:42:47;7.35;;;4.15;;
18623;SDS011;9441;51.420;7.036;2022-08-30T02:43:49;7.47;;;4.28;;
18623;SDS011;9441;51.420;7.036;2022-08-30T02:44:51;9.18;;;4.47;;
18623;SDS011;9441;51.420;7.036;2022-08-30T02:45:53;8.80;;;4.38;;
18623;SDS011;9441;51.420;7.036;2022-08-30T02:46:54;6.47;;;3.92;;
18623;SDS011;9441;51.420;7.036;2022-08-30T02:47:57;8.52;;;4.32;;
18623;SDS011;9441;51.420;7.036;2022-08-30T02:48:58;5.00;;;4.20;;
18623;SDS011;9441;51.420;7.036;2022-08-30T02:50:00;5.13;;;4.35;;
18623;SDS011;9441;51.420;7.036;2022-08-30T02:51:03;5.93;;;4.10;;
18623;SDS011;9441;51.420;7.036;2022-08-30T02:52:07;6.88;;;4.15;;
18623;SDS011;9441;51.420;7.036;2022-08-30T02:53:08;6.40;;;3.88;;
18623;SDS011;9441;51.420;7.036;2022-08-30T02:54:10;6.07;;;4.20;;
18623;SDS011;9441;51.420;7.036;2022-08-30T02:55:18;9.70;;;4.50;;
18623;SDS011;9441;51.420;7.036;2022-08-30T02:56:20;5.75;;;4.15;;
18623;SDS011;9441;51.420;7.036;2022-08-30T02:57:22;8.35;;;4.50;;
18623;SDS011;9441;51.420;7.036;2022-08-30T02:58:24;5.18;;;3.78;;
18623;SDS011;9441;51.420;7.036;2022-08-30T02:59:25;5.05;;;4.20;;
18623;SDS011;9441;51.420;7.036;2022-08-30T03:00:27;9.82;;;4.32;;
18623;SDS011;9441;51.420;7.036;2022-08-30T03:01:29;8.38;;;3.83;;
18623;SDS011;9441;51.420;7.036;2022-08-30T03:02:35;8.95;;;4.18;;
18623;SDS011;9441;51.420;7.036;2022-08-30T03:03:36;7.95;;;3.72;;
18623;SDS011;9441;51.420;7.036;2022-08-30T03:04:39;6.45;;;4.53;;
18623;SDS011;9441;51.420;7.036;2022-08-30T03:05:40;10.85;;;4.03;;
18623;SDS011;9441;51.420;7.036;2022-08-30T03:06:42;5.90;;;4.53;;
18623;SDS011;9441;51.420;7.036;2022-08-30T03:07:43;5.68;;;4.18;;
18623;SDS011;9441;51.420;7.036;2022-08-30T03:08:46;6.47;;;4.20;;
18623;SDS011;9441;51.420;7.036;2022-08-30T03:09:47;4.57;;;3.80;;
18623;SDS011;9441;51.420;7.036;2022-08-30T03:10:50;8.82;;;4.32;;
18623;SDS011;9441;51.420;7.036;2022-08-30T03:11:51;8.02;;;3.78;;
18623;SDS011;9441;51.420;7.036;2022-08-30T03:12:54;7.03;;;4.00;;
18623;SDS011;9441;51.420;7.036;2022-08-30T03:13:55;7.22;;;4.07;;
18623;SDS011;9441;51.420;7.036;2022-08-30T03:14:58;7.55;;;4.00;;
18623;SDS011;9441;51.420;7.036;2022-08-30T03:15:59;8.55;;;4.50;;
18623;SDS011;9441;51.420;7.036;2022-08-30T03:17:02;5.68;;;3.70;;
18623;SDS011;9441;51.420;7.036;2022-08-30T03:18:04;10.68;;;4.00;;
18623;SDS011;9441;51.420;7.036;2022-08-30T03:19:07;4.57;;;3.78;;
18623;SDS011;9441;51.420;7.036;2022-08-30T03:20:08;8.32;;;4.18;;
18623;SDS011;9441;51.420;7.036;2022-08-30T03:21:11;8.48;;;4.20;;
18623;SDS011;9441;51.420;7.036;2022-08-30T03:22:14;7.35;;;4.35;;
18623;SDS011;9441;51.420;7.036;2022-08-30T03:23:16;7.32;;;4.07;;
18623;SDS011;9441;51.420;7.036;2022-08-30T03:24:18;7.47;;;3.83;;
18623;SDS011;9441;51.420;7.036;2022-08-30T03:25:21;7.10;;;3.80;;
18623;SDS011;9441;51.420;7.036;2022-08-30T03:26:22;4.53;;;3.80;;
18623;SDS011;9441;51.420;7.036;2022-08-30T03:27:24;7.63;;;3.92;;
18623;SDS011;9441;51.420;7.036;2022-08-30T03:28:27;6.20;;;4.15;;
18623;SDS011;9441;51.420;7.036;2022-08-30T03:29:29;4.78;;;3.70;;
18623;SDS011;9441;51.420;7.036;2022-08-30T03:30:31;4.90;;;3.90;;
18623;SDS011;9441;51.420;7.036;2022-08-30T03:31:33;8.85;;;3.95;;
18623;SDS011;9441;51.420;7.036;2022-08-30T03:32:35;5.20;;;3.78;;
18623;SDS011;9441;51.420;7.036;2022-08-30T03:33:37;6.13;;;3.97;;
18623;SDS011;9441;51.420;7.036;2022-08-30T03:34:39;10.05;;;4.15;;
18623;SDS011;9441;51.420;7.036;2022-08-30T03:35:41;7.30;;;3.80;;
18623;SDS011;9441;51.420;7.036;2022-08-30T03:36:42;5.45;;;4.25;;
18623;SDS011;9441;51.420;7.036;2022-08-30T03:37:44;5.30;;;4.18;;
18623;SDS011;9441;51.420;7.036;2022-08-30T03:38:46;12.15;;;4.20;;
18623;SDS011;9441;51.420;7.036;2022-08-30T03:39:48;6.32;;;4.20;;
18623;SDS011;9441;51.420;7.036;2022-08-30T03:40:49;6.63;;;3.97;;
18623;SDS011;9441;51.420;7.036;2022-08-30T03:41:51;5.88;;;3.60;;
18623;SDS011;9441;51.420;7.036;2022-08-30T03:42:53;6.25;;;4.28;;
18623;SDS011;9441;51.420;7.036;2022-08-30T03:43:56;5.38;;;4.03;;
18623;SDS011;9441;51.420;7.036;2022-08-30T03:44:57;6.88;;;3.80;;
18623;SDS011;9441;51.420;7.036;2022-08-30T03:46:01;8.20;;;4.18;;
18623;SDS011;9441;51.420;7.036;2022-08-30T03:47:03;5.47;;;4.00;;
18623;SDS011;9441;51.420;7.036;2022-08-30T03:48:06;5.28;;;3.90;;
18623;SDS011;9441;51.420;7.036;2022-08-30T03:49:07;8.00;;;3.85;;
18623;SDS011;9441;51.420;7.036;2022-08-30T03:50:10;8.43;;;3.80;;
18623;SDS011;9441;51.420;7.036;2022-08-30T03:51:13;7.60;;;3.83;;
18623;SDS011;9441;51.420;7.036;2022-08-30T03:52:15;7.10;;;3.63;;
18623;SDS011;9441;51.420;7.036;2022-08-30T03:53:16;5.70;;;3.90;;
18623;SDS011;9441;51.420;7.036;2022-08-30T03:54:18;5.65;;;4.00;;
18623;SDS011;9441;51.420;7.036;2022-08-30T03:55:19;5.45;;;3.90;;
18623;SDS011;9441;51.420;7.036;2022-08-30T03:56:21;6.32;;;3.80;;
18623;SDS011;9441;51.420;7.036;2022-08-30T03:57:23;6.03;;;3.60;;
18623;SDS011;9441;51.420;7.036;2022-08-30T03:58:25;5.68;;;3.90;;
18623;SDS011;9441;51.420;7.036;2022-08-30T03:59:28;5.78;;;3.85;;
18623;SDS011;9441;51.420;7.036;2022-08-30T04:00:30;7.80;;;4.25;;
18623;SDS011;9441;51.420;7.036;2022-08-30T04:01:31;4.82;;;3.67;;
18623;SDS011;9441;51.420;7.036;2022-08-30T04:02:33;8.20;;;4.15;;
18623;SDS011;9441;51.420;7.036;2022-08-30T04:03:34;5.55;;;3.90;;
18623;SDS011;9441;51.420;7.036;2022-08-30T04:04:37;10.65;;;3.85;;
18623;SDS011;9441;51.420;7.036;2022-08-30T04:05:38;6.22;;;4.13;;
18623;SDS011;9441;51.420;7.036;2022-08-30T04:06:40;7.63;;;4.55;;
18623;SDS011;9441;51.420;7.036;2022-08-30T04:07:41;5.90;;;4.00;;
18623;SDS011;9441;51.420;7.036;2022-08-30T04:08:43;5.70;;;4.63;;
18623;SDS011;9441;51.420;7.036;2022-08-30T04:09:45;7.38;;;3.90;;
18623;SDS011;9441;51.420;7.036;2022-08-30T04:10:47;8.05;;;4.50;;
18623;SDS011;9441;51.420;7.036;2022-08-30T04:11:50;7.10;;;3.90;;
18623;SDS011;9441;51.420;7.036;2022-08-30T04:12:51;8.18;;;4.07;;
18623;SDS011;9441;51.420;7.036;2022-08-30T04:13:53;7.05;;;4.28;;
18623;SDS011;9441;51.420;7.036;2022-08-30T04:14:57;6.45;;;4.32;;
18623;SDS011;9441;51.420;7.036;2022-08-30T04:15:59;6.45;;;4.18;;
18623;SDS011;9441;51.420;7.036;2022-08-30T04:17:00;5.80;;;4.07;;
18623;SDS011;9441;51.420;7.036;2022-08-30T04:18:02;9.88;;;4.70;;
18623;SDS011;9441;51.420;7.036;2022-08-30T04:19:03;5.25;;;4.15;;
18623;SDS011;9441;51.420;7.036;2022-08-30T04:20:06;7.25;;;4.00;;
18623;SDS011;9441;51.420;7.036;2022-08-30T04:21:08;8.70;;;4.85;;
18623;SDS011;9441;51.420;7.036;2022-08-30T04:22:10;10.90;;;4.82;;
18623;SDS011;9441;51.420;7.036;2022-08-30T04:23:11;6.28;;;4.70;;
18623;SDS011;9441;51.420;7.036;2022-08-30T04:24:14;7.82;;;4.50;;
18623;SDS011;9441;51.420;7.036;2022-08-30T04:25:15;7.45;;;4.20;;
18623;SDS011;9441;51.420;7.036;2022-08-30T04:26:17;7.13;;;4.45;;
18623;SDS011;9441;51.420;7.036;2022-08-30T04:27:18;6.53;;;4.32;;
18623;SDS011;9441;51.420;7.036;2022-08-30T04:28:20;14.35;;;4.63;;
18623;SDS011;9441;51.420;7.036;2022-08-30T04:29:22;10.00;;;5.00;;
18623;SDS011;9441;51.420;7.036;2022-08-30T04:30:25;6.45;;;4.45;;
18623;SDS011;9441;51.420;7.036;2022-08-30T04:31:27;7.07;;;3.92;;
18623;SDS011;9441;51.420;7.036;2022-08-30T04:32:29;8.13;;;4.38;;
18623;SDS011;9441;51.420;7.036;2022-08-30T04:33:30;9.35;;;4.55;;
18623;SDS011;9441;51.420;7.036;2022-08-30T04:34:32;6.80;;;4.30;;
18623;SDS011;9441;51.420;7.036;2022-08-30T04:35:33;8.55;;;4.60;;
18623;SDS011;9441;51.420;7.036;2022-08-30T04:36:35;6.38;;;4.30;;
18623;SDS011;9441;51.420;7.036;2022-08-30T04:37:36;7.55;;;4.68;;
18623;SDS011;9441;51.420;7.036;2022-08-30T04:38:39;7.30;;;4.55;;
18623;SDS011;9441;51.420;7.036;2022-08-30T04:39:41;7.68;;;4.82;;
18623;SDS011;9441;51.420;7.036;2022-08-30T04:40:44;7.60;;;4.80;;
18623;SDS011;9441;51.420;7.036;2022-08-30T04:41:47;9.10;;;4.85;;
18623;SDS011;9441;51.420;7.036;2022-08-30T04:42:49;9.20;;;4.78;;
18623;SDS011;9441;51.420;7.036;2022-08-30T04:43:53;9.95;;;4.90;;
18623;SDS011;9441;51.420;7.036;2022-08-30T04:44:55;7.68;;;4.88;;
18623;SDS011;9441;51.420;7.036;2022-08-30T04:45:58;5.60;;;5.00;;
18623;SDS011;9441;51.420;7.036;2022-08-30T04:47:00;9.52;;;4.78;;
18623;SDS011;9441;51.420;7.036;2022-08-30T04:48:01;9.75;;;4.85;;
18623;SDS011;9441;51.420;7.036;2022-08-30T04:49:03;8.77;;;4.90;;
18623;SDS011;9441;51.420;7.036;2022-08-30T04:50:05;6.68;;;4.93;;
18623;SDS011;9441;51.420;7.036;2022-08-30T04:51:09;6.35;;;4.68;;
18623;SDS011;9441;51.420;7.036;2022-08-30T04:52:13;8.15;;;4.50;;
18623;SDS011;9441;51.420;7.036;2022-08-30T04:53:15;5.30;;;4.40;;
18623;SDS011;9441;51.420;7.036;2022-08-30T04:54:16;9.30;;;4.57;;
18623;SDS011;9441;51.420;7.036;2022-08-30T04:55:18;5.80;;;4.30;;
18623;SDS011;9441;51.420;7.036;2022-08-30T04:56:20;10.10;;;4.70;;
18623;SDS011;9441;51.420;7.036;2022-08-30T04:57:23;7.45;;;4.78;;
18623;SDS011;9441;51.420;7.036;2022-08-30T04:58:26;9.15;;;4.75;;
18623;SDS011;9441;51.420;7.036;2022-08-30T04:59:28;7.88;;;4.60;;
18623;SDS011;9441;51.420;7.036;2022-08-30T05:00:29;8.07;;;4.63;;
18623;SDS011;9441;51.420;7.036;2022-08-30T05:01:33;7.88;;;4.70;;
18623;SDS011;9441;51.420;7.036;2022-08-30T05:02:35;8.57;;;4.38;;
18623;SDS011;9441;51.420;7.036;2022-08-30T05:03:37;7.07;;;5.00;;
18623;SDS011;9441;51.420;7.036;2022-08-30T05:04:38;8.13;;;4.85;;
18623;SDS011;9441;51.420;7.036;2022-08-30T05:06:00;6.18;;;4.57;;
18623;SDS011;9441;51.420;7.036;2022-08-30T05:07:01;6.63;;;4.57;;
18623;SDS011;9441;51.420;7.036;2022-08-30T05:08:03;5.88;;;4.40;;
18623;SDS011;9441;51.420;7.036;2022-08-30T05:09:04;6.97;;;4.40;;
18623;SDS011;9441;51.420;7.036;2022-08-30T05:10:07;9.05;;;4.47;;
18623;SDS011;9441;51.420;7.036;2022-08-30T05:11:08;5.88;;;4.32;;
18623;SDS011;9441;51.420;7.036;2022-08-30T05:12:11;8.63;;;4.68;;
18623;SDS011;9441;51.420;7.036;2022-08-30T05:13:13;7.63;;;4.70;;
18623;SDS011;9441;51.420;7.036;2022-08-30T05:14:15;5.85;;;4.43;;
18623;SDS011;9441;51.420;7.036;2022-08-30T05:15:18;5.03;;;4.40;;
18623;SDS011;9441;51.420;7.036;2022-08-30T05:16:19;8.30;;;4.93;;
18623;SDS011;9441;51.420;7.036;2022-08-30T05:17:22;6.32;;;5.15;;
18623;SDS011;9441;51.420;7.036;2022-08-30T05:18:24;8.90;;;5.50;;
18623;SDS011;9441;51.420;7.036;2022-08-30T05:19:26;8.77;;;5.60;;
18623;SDS011;9441;51.420;7.036;2022-08-30T05:20:32;9.52;;;5.68;;
18623;SDS011;9441;51.420;7.036;2022-08-30T05:21:34;9.63;;;5.70;;
18623;SDS011;9441;51.420;7.036;2022-08-30T05:22:37;9.80;;;5.40;;
18623;SDS011;9441;51.420;7.036;2022-08-30T05:23:39;6.82;;;5.35;;
18623;SDS011;9441;51.420;7.036;2022-08-30T05:24:41;10.73;;;6.05;;
18623;SDS011;9441;51.420;7.036;2022-08-30T05:25:42;8.20;;;5.70;;
18623;SDS011;9441;51.420;7.036;2022-08-30T05:26:45;11.63;;;6.00;;
18623;SDS011;9441;51.420;7.036;2022-08-30T05:27:47;10.60;;;6.45;;
18623;SDS011;9441;51.420;7.036;2022-08-30T05:28:48;11.98;;;5.20;;
18623;SDS011;9441;51.420;7.036;2022-08-30T05:29:50;13.55;;;5.68;;
18623;SDS011;9441;51.420;7.036;2022-08-30T05:30:51;8.63;;;5.68;;
18623;SDS011;9441;51.420;7.036;2022-08-30T05:31:53;8.95;;;5.72;;
18623;SDS011;9441;51.420;7.036;2022-08-30T05:32:56;9.55;;;5.75;;
18623;SDS011;9441;51.420;7.036;2022-08-30T05:33:58;8.95;;;5.50;;
18623;SDS011;9441;51.420;7.036;2022-08-30T05:35:00;7.97;;;5.32;;
18623;SDS011;9441;51.420;7.036;2022-08-30T05:36:04;8.52;;;5.68;;
18623;SDS011;9441;51.420;7.036;2022-08-30T05:37:07;7.95;;;5.70;;
18623;SDS011;9441;51.420;7.036;2022-08-30T05:38:08;9.00;;;5.45;;
18623;SDS011;9441;51.420;7.036;2022-08-30T05:39:10;8.80;;;6.10;;
18623;SDS011;9441;51.420;7.036;2022-08-30T05:40:13;10.02;;;6.30;;
18623;SDS011;9441;51.420;7.036;2022-08-30T05:41:17;8.02;;;5.57;;
18623;SDS011;9441;51.420;7.036;2022-08-30T05:42:20;9.13;;;5.80;;
18623;SDS011;9441;51.420;7.036;2022-08-30T05:43:21;11.63;;;6.45;;
18623;SDS011;9441;51.420;7.036;2022-08-30T05:44:23;8.25;;;5.80;;
18623;SDS011;9441;51.420;7.036;2022-08-30T05:45:25;7.88;;;5.72;;
18623;SDS011;9441;51.420;7.036;2022-08-30T05:46:27;8.68;;;5.88;;
18623;SDS011;9441;51.420;7.036;2022-08-30T05:47:32;9.27;;;5.60;;
18623;SDS011;9441;51.420;7.036;2022-08-30T05:48:35;7.45;;;5.55;;
18623;SDS011;9441;51.420;7.036;2022-08-30T05:49:37;10.40;;;5.45;;
18623;SDS011;9441;51.420;7.036;2022-08-30T05:50:39;13.38;;;5.90;;
18623;SDS011;9441;51.420;7.036;2022-08-30T05:51:41;12.20;;;6.30;;
18623;SDS011;9441;51.420;7.036;2022-08-30T05:52:43;9.88;;;6.00;;
18623;SDS011;9441;51.420;7.036;2022-08-30T05:53:44;10.68;;;6.63;;
18623;SDS011;9441;51.420;7.036;2022-08-30T05:54:50;8.77;;;6.57;;
18623;SDS011;9441;51.420;7.036;2022-08-30T05:55:52;8.25;;;6.03;;
18623;SDS011;9441;51.420;7.036;2022-08-30T05:56:54;10.10;;;5.70;;
18623;SDS011;9441;51.420;7.036;2022-08-30T05:57:56;11.35;;;6.18;;
18623;SDS011;9441;51.420;7.036;2022-08-30T05:58:59;10.55;;;6.20;;
18623;SDS011;9441;51.420;7.036;2022-08-30T06:00:02;13.18;;;6.78;;
18623;SDS011;9441;51.420;7.036;2022-08-30T06:01:19;8.55;;;6.20;;
18623;SDS011;9441;51.420;7.036;2022-08-30T06:02:22;10.27;;;6.38;;
18623;SDS011;9441;51.420;7.036;2022-08-30T06:03:23;11.57;;;5.85;;
18623;SDS011;9441;51.420;7.036;2022-08-30T06:04:27;8.80;;;6.13;;
18623;SDS011;9441;51.420;7.036;2022-08-30T06:05:28;9.10;;;6.20;;
18623;SDS011;9441;51.420;7.036;2022-08-30T06:06:31;14.07;;;6.20;;
18623;SDS011;9441;51.420;7.036;2022-08-30T06:07:35;9.98;;;6.85;;
18623;SDS011;9441;51.420;7.036;2022-08-30T06:08:37;8.98;;;6.82;;
18623;SDS011;9441;51.420;7.036;2022-08-30T06:09:38;9.85;;;6.20;;
18623;SDS011;9441;51.420;7.036;2022-08-30T06:10:40;13.60;;;7.13;;
18623;SDS011;9441;51.420;7.036;2022-08-30T06:11:41;10.98;;;6.78;;
18623;SDS011;9441;51.420;7.036;2022-08-30T06:12:44;8.40;;;6.05;;
18623;SDS011;9441;51.420;7.036;2022-08-30T06:13:46;7.20;;;6.30;;
18623;SDS011;9441;51.420;7.036;2022-08-30T06:14:48;10.82;;;6.22;;
18623;SDS011;9441;51.420;7.036;2022-08-30T06:15:50;8.93;;;6.43;;
18623;SDS011;9441;51.420;7.036;2022-08-30T06:16:51;12.05;;;6.50;;
18623;SDS011;9441;51.420;7.036;2022-08-30T06:17:53;13.93;;;6.38;;
18623;SDS011;9441;51.420;7.036;2022-08-30T06:18:55;10.40;;;6.68;;
18623;SDS011;9441;51.420;7.036;2022-08-30T06:20:00;10.43;;;6.85;;
18623;SDS011;9441;51.420;7.036;2022-08-30T06:21:02;12.32;;;6.47;;